createdAt,value
2022-12-01T00:01:16.275Z,4.32
2022-12-01T00:03:42.915Z,4.33
2022-12-01T00:06:17.755Z,4.33
2022-12-01T00:09:05.822Z,4.34
2022-12-01T00:11:33.791Z,4.35
2022-12-01T00:14:00.976Z,4.36
2022-12-01T00:16:27.659Z,4.37
2022-12-01T00:18:54.834Z,4.39
2022-12-01T00:21:23.796Z,4.40
2022-12-01T00:23:53.047Z,4.41
2022-12-01T00:26:20.771Z,4.40
2022-12-01T00:28:58.545Z,4.41
2022-12-01T00:31:26.105Z,4.40
2022-12-01T00:33:52.746Z,4.41
2022-12-01T00:36:19.274Z,4.42
2022-12-01T00:38:46.422Z,4.42
2022-12-01T00:41:13.143Z,4.43
2022-12-01T00:43:39.882Z,4.44
2022-12-01T00:46:06.907Z,4.43
2022-12-01T00:48:33.563Z,4.43
2022-12-01T00:51:01.412Z,4.45
2022-12-01T00:53:27.861Z,4.45
2022-12-01T00:55:54.425Z,4.45
2022-12-01T00:58:21.452Z,4.45
2022-12-01T01:00:48.019Z,4.47
2022-12-01T01:03:14.596Z,4.47
2022-12-01T01:05:42.903Z,4.46
2022-12-01T01:08:12.049Z,4.47
2022-12-01T01:10:42.771Z,4.49
2022-12-01T01:13:09.646Z,4.48
2022-12-01T01:15:36.379Z,4.49
2022-12-01T01:18:02.959Z,4.51
2022-12-01T01:20:29.697Z,4.52
2022-12-01T01:22:56.133Z,4.54
2022-12-01T01:25:22.886Z,4.54
2022-12-01T01:27:49.912Z,4.53
2022-12-01T01:30:16.871Z,4.54
2022-12-01T01:32:43.392Z,4.55
2022-12-01T01:35:09.906Z,4.54
2022-12-01T01:37:36.282Z,4.55
2022-12-01T01:40:02.848Z,4.57
2022-12-01T01:42:29.243Z,4.57
2022-12-01T01:44:57.956Z,4.59
2022-12-01T01:47:32.180Z,4.59
2022-12-01T01:50:06.165Z,4.59
2022-12-01T01:52:34.761Z,4.60
2022-12-01T01:55:01.254Z,4.59
2022-12-01T01:57:30.954Z,4.58
2022-12-01T02:00:04.819Z,4.59
2022-12-01T02:02:43.726Z,4.61
2022-12-01T02:05:16.520Z,4.61
2022-12-01T02:07:43.317Z,4.60
2022-12-01T02:10:12.901Z,4.60
2022-12-01T02:12:56.405Z,4.61
2022-12-01T02:15:47.510Z,4.60
2022-12-01T02:18:38.798Z,4.61
2022-12-01T02:21:17.713Z,4.63
2022-12-01T02:24:20.327Z,4.62
2022-12-01T02:26:52.391Z,4.61
2022-12-01T02:29:35.356Z,4.62
2022-12-01T02:32:27.605Z,4.61
2022-12-01T02:35:16.408Z,4.62
2022-12-01T02:38:09.009Z,4.62
2022-12-01T02:40:57.657Z,4.60
2022-12-01T02:43:29.003Z,4.61
2022-12-01T02:46:14.683Z,4.61
2022-12-01T02:48:46.805Z,4.61
2022-12-01T02:51:35.394Z,4.61
2022-12-01T02:54:03.761Z,4.61
2022-12-01T02:56:30.313Z,4.61
2022-12-01T02:58:56.854Z,4.60
2022-12-01T03:01:35.501Z,4.60
2022-12-01T03:04:34.747Z,4.60
2022-12-01T03:07:26.913Z,4.61
2022-12-01T03:09:59.226Z,4.61
2022-12-01T03:13:00.917Z,4.62
2022-12-01T03:15:56.489Z,4.62
2022-12-01T03:18:43.582Z,4.62
2022-12-01T03:22:01.082Z,4.62
2022-12-01T03:24:32.832Z,4.62
2022-12-01T03:27:02.198Z,4.61
2022-12-01T03:29:39.802Z,4.63
2022-12-01T03:32:15.181Z,4.63
2022-12-01T03:34:51.393Z,4.64
2022-12-01T03:37:25.266Z,4.62
2022-12-01T03:40:00.286Z,4.63
2022-12-01T03:42:33.641Z,4.62
2022-12-01T03:45:17.762Z,4.60
2022-12-01T03:47:44.864Z,4.61
2022-12-01T03:50:13.973Z,4.62
2022-12-01T03:53:02.381Z,4.61
2022-12-01T03:55:31.566Z,4.61
2022-12-01T03:58:11.012Z,4.62
2022-12-01T04:00:38.156Z,4.59
2022-12-01T04:03:05.506Z,4.59
2022-12-01T04:05:34.135Z,4.57
2022-12-01T04:08:01.056Z,4.58
2022-12-01T04:10:27.589Z,4.56
2022-12-01T04:12:59.064Z,4.55
2022-12-01T04:15:26.880Z,4.53
2022-12-01T04:17:53.447Z,4.53
2022-12-01T04:20:20.191Z,4.53
2022-12-01T04:22:47.507Z,4.53
2022-12-01T04:25:13.915Z,4.52
2022-12-01T04:27:40.418Z,4.50
2022-12-01T04:30:08.096Z,4.52
2022-12-01T04:32:42.109Z,4.53
2022-12-01T04:35:10.525Z,4.51
2022-12-01T04:37:37.402Z,4.50
2022-12-01T04:40:04.633Z,4.49
2022-12-01T04:42:31.229Z,4.50
2022-12-01T04:44:57.787Z,4.50
2022-12-01T04:47:24.180Z,4.50
2022-12-01T04:49:50.958Z,4.48
2022-12-01T04:52:17.754Z,4.50
2022-12-01T04:54:44.226Z,4.50
2022-12-01T04:57:10.622Z,4.51
2022-12-01T04:59:37.063Z,4.50
2022-12-01T05:02:04.153Z,4.51
2022-12-01T05:04:32.415Z,4.51
2022-12-01T05:06:58.867Z,4.50
2022-12-01T05:09:25.322Z,4.49
2022-12-01T05:11:51.716Z,4.47
2022-12-01T05:14:18.146Z,4.46
2022-12-01T05:16:44.721Z,4.45
2022-12-01T05:19:29.768Z,4.43
2022-12-01T05:21:56.154Z,4.40
2022-12-01T05:24:22.724Z,4.34
2022-12-01T05:26:49.199Z,4.31
2022-12-01T05:29:15.699Z,4.29
2022-12-01T05:31:42.282Z,4.28
2022-12-01T05:34:09.456Z,4.25
2022-12-01T05:36:36.407Z,4.25
2022-12-01T05:39:03.689Z,4.23
2022-12-01T05:41:30.210Z,4.21
2022-12-01T05:43:56.698Z,4.21
2022-12-01T05:46:23.186Z,4.22
2022-12-01T05:48:49.670Z,4.22
2022-12-01T05:51:17.206Z,4.21
2022-12-01T05:53:44.497Z,4.22
2022-12-01T05:56:11.199Z,4.24
2022-12-01T05:58:37.734Z,4.24
2022-12-01T06:01:04.411Z,4.25
2022-12-01T06:03:30.829Z,4.24
2022-12-01T06:05:57.330Z,4.23
2022-12-01T06:08:23.917Z,4.21
2022-12-01T06:10:50.358Z,4.18
2022-12-01T06:13:16.761Z,4.13
2022-12-01T06:15:43.199Z,4.08
2022-12-01T06:18:09.606Z,4.00
2022-12-01T06:20:36.024Z,3.94
2022-12-01T06:23:02.754Z,3.90
2022-12-01T06:25:29.222Z,3.87
2022-12-01T06:27:57.520Z,3.83
2022-12-01T06:30:24.364Z,3.81
2022-12-01T06:32:50.859Z,3.76
2022-12-01T06:35:17.359Z,3.73
2022-12-01T06:37:43.837Z,3.68
2022-12-01T06:40:11.002Z,3.64
2022-12-01T06:42:37.377Z,3.61
2022-12-01T06:45:04.095Z,3.58
2022-12-01T06:47:30.850Z,3.54
2022-12-01T06:49:57.351Z,3.50
2022-12-01T06:52:23.759Z,3.47
2022-12-01T06:54:50.241Z,3.44
2022-12-01T06:57:16.995Z,3.40
2022-12-01T06:59:43.671Z,3.38
2022-12-01T07:02:11.416Z,3.34
2022-12-01T07:04:37.927Z,3.31
2022-12-01T07:07:05.828Z,3.26
2022-12-01T07:09:32.294Z,3.23
2022-12-01T07:12:00.149Z,3.22
2022-12-01T07:14:27.330Z,3.17
2022-12-01T07:16:54.129Z,3.16
2022-12-01T07:19:20.768Z,3.12
2022-12-01T07:21:47.383Z,3.10
2022-12-01T07:24:13.972Z,3.08
2022-12-01T07:26:41.493Z,3.07
2022-12-01T07:29:09.309Z,3.04
2022-12-01T07:31:36.747Z,3.03
2022-12-01T07:34:03.679Z,3.03
2022-12-01T07:36:30.126Z,3.02
2022-12-01T07:38:56.764Z,3.02
2022-12-01T07:41:23.197Z,3.00
2022-12-01T07:43:50.537Z,3.00
2022-12-01T07:46:23.236Z,2.99
2022-12-01T07:48:50.332Z,3.00
2022-12-01T07:51:17.295Z,3.01
2022-12-01T07:53:45.395Z,3.03
2022-12-01T07:56:12.518Z,3.05
2022-12-01T07:58:39.239Z,3.06
2022-12-01T08:01:13.859Z,3.11
2022-12-01T08:03:41.179Z,3.14
2022-12-01T08:06:08.365Z,3.20
2022-12-01T08:08:36.303Z,3.23
2022-12-01T08:11:07.894Z,3.26
2022-12-01T08:13:34.303Z,3.30
2022-12-01T08:16:07.110Z,3.36
2022-12-01T08:18:41.050Z,3.39
2022-12-01T08:21:09.435Z,3.44
2022-12-01T08:23:35.937Z,3.49
2022-12-01T08:26:04.494Z,3.52
2022-12-01T08:28:31.000Z,3.55
2022-12-01T08:30:57.528Z,3.61
2022-12-01T08:33:24.078Z,3.65
2022-12-01T08:35:50.539Z,3.69
2022-12-01T08:38:17.072Z,3.73
2022-12-01T08:40:43.535Z,3.77
2022-12-01T08:43:15.234Z,3.80
2022-12-01T08:45:49.458Z,3.83
2022-12-01T08:48:15.870Z,3.87
2022-12-01T08:50:42.305Z,3.91
2022-12-01T08:53:08.765Z,3.94
2022-12-01T08:55:35.332Z,3.97
2022-12-01T08:58:01.757Z,4.01
2022-12-01T09:00:29.109Z,4.05
2022-12-01T09:02:55.581Z,4.08
2022-12-01T09:05:22.058Z,4.12
2022-12-01T09:08:08.565Z,4.15
2022-12-01T09:10:35.055Z,4.18
2022-12-01T09:13:01.458Z,4.21
2022-12-01T09:15:27.890Z,4.23
2022-12-01T09:17:54.294Z,4.27
2022-12-01T09:20:20.658Z,4.29
2022-12-01T09:22:47.081Z,4.31
2022-12-01T09:25:14.698Z,4.31
2022-12-01T09:27:41.170Z,4.33
2022-12-01T09:30:08.254Z,4.34
2022-12-01T09:32:34.741Z,4.39
2022-12-01T09:35:01.138Z,4.39
2022-12-01T09:37:27.562Z,4.40
2022-12-01T09:39:54.041Z,4.43
2022-12-01T09:42:32.227Z,4.44
2022-12-01T09:45:04.947Z,4.46
2022-12-01T09:47:34.935Z,4.50
2022-12-01T09:50:10.880Z,4.52
2022-12-01T09:52:46.382Z,4.55
2022-12-01T09:55:15.087Z,4.56
2022-12-01T09:57:43.316Z,4.61
2022-12-01T10:00:18.025Z,4.64
2022-12-01T10:02:52.783Z,4.67
2022-12-01T10:05:22.009Z,4.69
2022-12-01T10:07:55.244Z,4.71
2022-12-01T10:10:33.116Z,4.75
2022-12-01T10:13:00.443Z,4.78
2022-12-01T10:15:45.839Z,4.85
2022-12-01T10:18:46.379Z,4.91
2022-12-01T10:21:36.979Z,5.00
2022-12-01T10:24:28.055Z,5.08
2022-12-01T10:27:02.834Z,5.14
2022-12-01T10:29:48.217Z,5.16
2022-12-01T10:32:19.922Z,5.19
2022-12-01T10:34:47.960Z,5.27
2022-12-01T10:37:21.486Z,5.35
2022-12-01T10:39:51.775Z,5.40
2022-12-01T10:42:37.603Z,5.44
2022-12-01T10:45:13.600Z,5.45
2022-12-01T10:48:19.296Z,5.48
2022-12-01T10:50:49.147Z,5.50
2022-12-01T10:53:25.262Z,5.49
2022-12-01T10:56:00.181Z,5.52
2022-12-01T10:58:26.970Z,5.53
2022-12-01T11:01:01.146Z,5.51
2022-12-01T11:03:31.511Z,5.53
2022-12-01T11:06:00.538Z,5.52
2022-12-01T11:08:41.529Z,5.51
2022-12-01T11:11:34.117Z,5.50
2022-12-01T11:14:05.951Z,5.49
2022-12-01T11:16:35.443Z,5.51
2022-12-01T11:19:32.666Z,5.52
2022-12-01T11:22:19.288Z,5.51
2022-12-01T11:24:58.051Z,5.51
2022-12-01T11:27:27.230Z,5.52
2022-12-01T11:30:02.622Z,5.58
2022-12-01T11:32:32.706Z,5.60
2022-12-01T11:35:16.672Z,5.63
2022-12-01T11:38:13.117Z,5.64
2022-12-01T11:40:56.327Z,5.63
2022-12-01T11:43:22.838Z,5.62
2022-12-01T11:45:49.753Z,5.64
2022-12-01T11:48:22.839Z,5.65
2022-12-01T11:51:01.300Z,5.69
2022-12-01T11:53:38.334Z,5.72
2022-12-01T11:56:24.810Z,5.74
2022-12-01T11:59:02.970Z,5.74
2022-12-01T12:01:58.919Z,5.80
2022-12-01T12:04:43.922Z,5.84
2022-12-01T12:07:32.244Z,5.88
2022-12-01T12:10:14.235Z,5.90
2022-12-01T12:12:49.696Z,5.88
2022-12-01T12:15:43.059Z,5.85
2022-12-01T12:18:42.175Z,5.85
2022-12-01T12:21:30.665Z,5.83
2022-12-01T12:24:34.941Z,5.80
2022-12-01T12:27:48.423Z,5.79
2022-12-01T12:30:22.454Z,5.82
2022-12-01T12:32:57.748Z,5.83
2022-12-01T12:35:50.291Z,5.85
2022-12-01T12:38:43.789Z,5.88
2022-12-01T12:41:24.587Z,5.88
2022-12-01T12:44:26.193Z,5.90
2022-12-01T12:47:09.967Z,5.92
2022-12-01T12:50:16.407Z,5.94
2022-12-01T12:52:47.777Z,5.93
2022-12-01T12:55:26.172Z,5.92
2022-12-01T12:58:02.666Z,5.90
2022-12-01T13:00:30.878Z,5.91
2022-12-01T13:03:35.614Z,5.94
2022-12-01T13:06:09.711Z,5.94
2022-12-01T13:08:45.910Z,5.97
2022-12-01T13:11:22.043Z,5.97
2022-12-01T13:13:48.439Z,5.97
2022-12-01T13:16:22.222Z,5.95
2022-12-01T13:18:56.533Z,5.94
2022-12-01T13:21:24.108Z,5.93
2022-12-01T13:23:52.569Z,5.93
2022-12-01T13:26:21.443Z,5.96
2022-12-01T13:28:51.966Z,6.00
2022-12-01T13:31:20.615Z,6.03
2022-12-01T13:34:02.168Z,6.04
2022-12-01T13:36:46.223Z,6.06
2022-12-01T13:39:22.705Z,6.07
2022-12-01T13:42:06.151Z,6.01
2022-12-01T13:44:42.548Z,5.94
2022-12-01T13:47:11.747Z,5.91
2022-12-01T13:49:42.583Z,5.89
2022-12-01T13:52:21.409Z,5.92
2022-12-01T13:55:09.816Z,5.94
2022-12-01T13:57:38.914Z,5.95
2022-12-01T14:00:21.180Z,5.89
2022-12-01T14:03:16.904Z,5.87
2022-12-01T14:05:53.749Z,5.84
2022-12-01T14:08:32.854Z,5.78
2022-12-01T14:11:23.275Z,5.75
2022-12-01T14:13:57.629Z,5.72
2022-12-01T14:16:25.166Z,5.71
2022-12-01T14:18:58.551Z,5.73
2022-12-01T14:21:45.935Z,5.72
2022-12-01T14:24:41.610Z,5.69
2022-12-01T14:27:11.696Z,5.68
2022-12-01T14:29:39.956Z,5.64
2022-12-01T14:32:09.134Z,5.62
2022-12-01T14:34:37.484Z,5.59
2022-12-01T14:37:12.052Z,5.56
2022-12-01T14:39:44.620Z,5.54
2022-12-01T14:42:10.975Z,5.55
2022-12-01T14:45:05.449Z,5.54
2022-12-01T14:47:46.600Z,5.52
2022-12-01T14:50:32.902Z,5.47
2022-12-01T14:53:13.451Z,5.45
2022-12-01T14:55:50.159Z,5.42
2022-12-01T14:58:23.971Z,5.41
2022-12-01T15:01:10.966Z,5.39
2022-12-01T15:03:41.616Z,5.33
2022-12-01T15:06:08.872Z,5.32
2022-12-01T15:08:49.268Z,5.30
2022-12-01T15:11:26.338Z,5.26
2022-12-01T15:13:57.437Z,5.23
2022-12-01T15:16:26.836Z,5.21
2022-12-01T15:18:53.585Z,5.18
2022-12-01T15:21:23.957Z,5.15
2022-12-01T15:23:53.139Z,5.13
2022-12-01T15:26:21.066Z,5.12
2022-12-01T15:28:47.583Z,5.09
2022-12-01T15:31:14.541Z,5.09
2022-12-01T15:33:50.378Z,5.03
2022-12-01T15:36:17.382Z,4.99
2022-12-01T15:38:47.138Z,4.95
2022-12-01T15:41:28.872Z,4.91
2022-12-01T15:43:58.895Z,4.91
2022-12-01T15:46:34.586Z,4.90
2022-12-01T15:49:19.081Z,4.88
2022-12-01T15:51:47.971Z,4.83
2022-12-01T15:54:28.497Z,4.77
2022-12-01T15:56:56.923Z,4.68
2022-12-01T15:59:40.114Z,4.61
2022-12-01T16:02:30.125Z,4.57
2022-12-01T16:05:08.905Z,4.53
2022-12-01T16:08:11.960Z,4.49
2022-12-01T16:10:32.690Z,4.44
2022-12-01T16:13:36.832Z,4.38
2022-12-01T16:16:27.223Z,4.31
2022-12-01T16:18:56.887Z,4.33
2022-12-01T16:21:24.715Z,4.29
2022-12-01T16:24:02.613Z,4.24
2022-12-01T16:26:29.931Z,4.20
2022-12-01T16:28:57.159Z,4.15
2022-12-01T16:31:25.928Z,4.09
2022-12-01T16:34:13.977Z,4.07
2022-12-01T16:36:45.915Z,4.07
2022-12-01T16:39:13.944Z,4.07
2022-12-01T16:41:44.437Z,4.07
2022-12-01T16:44:28.080Z,4.08
2022-12-01T16:46:55.166Z,4.07
2022-12-01T16:49:22.303Z,4.04
2022-12-01T16:51:57.291Z,3.98
2022-12-01T16:54:25.258Z,3.93
2022-12-01T16:56:51.723Z,3.87
2022-12-01T16:59:18.242Z,3.80
2022-12-01T17:01:44.758Z,3.74
2022-12-01T17:04:11.315Z,3.72
2022-12-01T17:06:38.393Z,3.66
2022-12-01T17:09:05.735Z,3.61
2022-12-01T17:11:32.639Z,3.57
2022-12-01T17:13:59.165Z,3.52
2022-12-01T17:16:25.759Z,3.40
2022-12-01T17:18:52.362Z,3.39
2022-12-01T17:21:18.834Z,3.37
2022-12-01T17:23:45.402Z,3.32
2022-12-01T17:26:17.232Z,3.29
2022-12-01T17:28:43.563Z,3.27
2022-12-01T17:31:11.563Z,3.21
2022-12-01T17:33:38.391Z,3.17
2022-12-01T17:36:07.934Z,3.12
2022-12-01T17:38:36.216Z,3.08
2022-12-01T17:41:08.311Z,3.04
2022-12-01T17:43:36.328Z,2.99
2022-12-01T17:46:04.563Z,2.93
2022-12-01T17:48:36.206Z,2.86
2022-12-01T17:51:02.596Z,2.84
2022-12-01T17:53:29.207Z,2.79
2022-12-01T17:55:55.613Z,2.77
2022-12-01T17:58:22.099Z,2.76
2022-12-01T18:00:50.781Z,2.72
2022-12-01T18:03:18.206Z,2.64
2022-12-01T18:05:44.827Z,2.64
2022-12-01T18:08:11.622Z,2.59
2022-12-01T18:10:38.096Z,2.55
2022-12-01T18:13:04.534Z,2.46
2022-12-01T18:15:34.640Z,2.40
2022-12-01T18:18:01.488Z,2.35
2022-12-01T18:20:29.083Z,2.33
2022-12-01T18:22:55.520Z,2.33
2022-12-01T18:25:22.002Z,2.30
2022-12-01T18:27:48.393Z,2.29
2022-12-01T18:30:15.098Z,2.29
2022-12-01T18:32:41.556Z,2.27
2022-12-01T18:35:08.411Z,2.25
2022-12-01T18:37:36.326Z,2.25
2022-12-01T18:40:02.948Z,2.21
2022-12-01T18:42:29.559Z,2.18
2022-12-01T18:44:56.005Z,2.20
2022-12-01T18:47:22.484Z,2.17
2022-12-01T18:49:48.931Z,2.13
2022-12-01T18:52:15.576Z,2.11
2022-12-01T18:54:42.052Z,2.09
2022-12-01T18:57:08.536Z,2.07
2022-12-01T18:59:35.014Z,2.04
2022-12-01T19:02:01.717Z,1.96
2022-12-01T19:04:29.060Z,1.96
2022-12-01T19:06:55.544Z,1.97
2022-12-01T19:09:22.279Z,1.98
2022-12-01T19:11:48.872Z,1.97
2022-12-01T19:14:17.960Z,1.99
2022-12-01T19:16:46.154Z,2.02
2022-12-01T19:19:12.843Z,2.05
2022-12-01T19:21:39.323Z,2.09
2022-12-01T19:24:06.167Z,2.12
2022-12-01T19:26:32.631Z,2.18
2022-12-01T19:28:59.398Z,2.20
2022-12-01T19:31:26.340Z,2.22
2022-12-01T19:33:54.535Z,2.24
2022-12-01T19:36:23.890Z,2.28
2022-12-01T19:38:51.390Z,2.31
2022-12-01T19:41:24.109Z,2.33
2022-12-01T19:43:51.449Z,2.37
2022-12-01T19:46:20.572Z,2.40
2022-12-01T19:48:48.038Z,2.44
2022-12-01T19:51:26.524Z,2.47
2022-12-01T19:53:54.363Z,2.51
2022-12-01T19:56:21.728Z,2.53
2022-12-01T19:58:48.786Z,2.56
2022-12-01T20:01:17.005Z,2.59
2022-12-01T20:03:48.428Z,2.62
2022-12-01T20:06:17.970Z,2.64
2022-12-01T20:08:45.090Z,2.67
2022-12-01T20:11:12.543Z,2.68
2022-12-01T20:13:40.716Z,2.72
2022-12-01T20:16:20.343Z,2.74
2022-12-01T20:18:47.960Z,2.76
2022-12-01T20:21:17.554Z,2.79
2022-12-01T20:23:45.939Z,2.82
2022-12-01T20:26:13.116Z,2.85
2022-12-01T20:28:40.520Z,2.87
2022-12-01T20:31:13.339Z,2.88
2022-12-01T20:33:40.719Z,2.91
2022-12-01T20:36:08.219Z,2.92
2022-12-01T20:38:35.267Z,2.94
2022-12-01T20:41:02.135Z,2.97
2022-12-01T20:43:28.857Z,2.99
2022-12-01T20:45:55.581Z,3.03
2022-12-01T20:48:22.311Z,3.03
2022-12-01T20:50:48.848Z,3.06
2022-12-01T20:53:15.682Z,3.06
2022-12-01T20:55:42.399Z,3.09
2022-12-01T20:58:09.287Z,3.11
2022-12-01T21:00:38.793Z,3.12
2022-12-01T21:03:05.810Z,3.14
2022-12-01T21:05:33.175Z,3.15
2022-12-01T21:08:01.370Z,3.15
2022-12-01T21:10:28.565Z,3.18
2022-12-01T21:13:20.215Z,3.20
2022-12-01T21:15:54.682Z,3.21
2022-12-01T21:18:27.903Z,3.22
2022-12-01T21:21:01.308Z,3.24
2022-12-01T21:23:28.104Z,3.24
2022-12-01T21:25:55.083Z,3.27
2022-12-01T21:28:26.540Z,3.28
2022-12-01T21:31:01.449Z,3.29
2022-12-01T21:33:33.595Z,3.30
2022-12-01T21:36:02.124Z,3.31
2022-12-01T21:38:28.693Z,3.32
2022-12-01T21:40:55.183Z,3.33
2022-12-01T21:43:23.733Z,3.34
2022-12-01T21:45:53.541Z,3.34
2022-12-01T21:48:24.356Z,3.35
2022-12-01T21:50:59.320Z,3.37
2022-12-01T21:53:32.382Z,3.39
2022-12-01T21:55:59.488Z,3.39
2022-12-01T21:58:30.106Z,3.40
2022-12-01T22:00:58.889Z,3.40
2022-12-01T22:03:34.078Z,3.42
2022-12-01T22:08:59.716Z,3.46
2022-12-01T22:11:30.400Z,3.47
2022-12-01T22:14:18.995Z,3.48
2022-12-01T22:16:51.374Z,3.55
2022-12-01T22:19:26.766Z,3.57
2022-12-01T22:22:11.320Z,3.58
2022-12-01T22:24:42.886Z,3.59
2022-12-01T22:27:21.219Z,3.61
2022-12-01T22:29:50.895Z,3.61
2022-12-01T22:32:17.249Z,3.61
2022-12-01T22:34:52.913Z,3.62
2022-12-01T22:37:22.744Z,3.64
2022-12-01T22:39:55.510Z,3.65
2022-12-01T22:42:32.497Z,3.64
2022-12-01T22:45:21.029Z,3.66
2022-12-01T22:47:47.479Z,3.67
2022-12-01T22:50:30.866Z,3.67
2022-12-01T22:53:01.872Z,3.68
2022-12-01T22:55:28.333Z,3.69
2022-12-01T22:57:55.013Z,3.70
2022-12-01T23:00:23.245Z,3.68
2022-12-01T23:02:52.328Z,3.68
2022-12-01T23:05:18.739Z,3.68
2022-12-01T23:07:45.880Z,3.70
2022-12-01T23:10:15.711Z,3.71
2022-12-01T23:12:44.112Z,3.71
2022-12-01T23:15:22.334Z,3.72
2022-12-01T23:17:49.858Z,3.73
2022-12-01T23:20:22.167Z,3.72
2022-12-01T23:22:48.802Z,3.72
2022-12-01T23:25:18.685Z,3.71
2022-12-01T23:27:48.278Z,3.71
2022-12-01T23:30:18.204Z,3.71
2022-12-01T23:32:47.811Z,3.71
2022-12-01T23:35:16.942Z,3.71
2022-12-01T23:37:44.753Z,3.72
2022-12-01T23:40:26.569Z,3.71
2022-12-01T23:42:53.349Z,3.71
2022-12-01T23:45:22.510Z,3.72
2022-12-01T23:47:51.290Z,3.71
2022-12-01T23:50:24.681Z,3.71
2022-12-01T23:52:51.565Z,3.73
2022-12-01T23:55:25.442Z,3.73
2022-12-01T23:57:52.392Z,3.73
